sensor_id;sensor_type;location;lat;lon;timestamp;P1;durP1;ratioP1;P2;durP2;ratioP2
76807;SDS011;65758;45.458;11.062;2023-06-14T00:01:30;5.20;;;4.70;;
76807;SDS011;65758;45.458;11.062;2023-06-14T00:04:01;6.00;;;5.00;;
76807;SDS011;65758;45.458;11.062;2023-06-14T00:06:28;5.60;;;4.50;;
76807;SDS011;65758;45.458;11.062;2023-06-14T00:08:55;5.30;;;4.40;;
76807;SDS011;65758;45.458;11.062;2023-06-14T00:11:22;5.20;;;4.20;;
76807;SDS011;65758;45.458;11.062;2023-06-14T00:13:49;4.90;;;4.30;;
76807;SDS011;65758;45.458;11.062;2023-06-14T00:16:16;6.00;;;5.10;;
76807;SDS011;65758;45.458;11.062;2023-06-14T00:18:44;4.70;;;4.30;;
76807;SDS011;65758;45.458;11.062;2023-06-14T00:21:12;4.80;;;4.30;;
76807;SDS011;65758;45.458;11.062;2023-06-14T00:23:39;5.80;;;4.30;;
76807;SDS011;65758;45.458;11.062;2023-06-14T00:26:06;4.30;;;3.70;;
76807;SDS011;65758;45.458;11.062;2023-06-14T00:28:32;5.80;;;4.00;;
76807;SDS011;65758;45.458;11.062;2023-06-14T00:30:59;4.50;;;3.90;;
76807;SDS011;65758;45.458;11.062;2023-06-14T00:33:27;4.40;;;4.00;;
76807;SDS011;65758;45.458;11.062;2023-06-14T00:35:54;4.50;;;4.00;;
76807;SDS011;65758;45.458;11.062;2023-06-14T00:38:21;4.60;;;4.00;;
76807;SDS011;65758;45.458;11.062;2023-06-14T00:40:48;5.90;;;4.00;;
76807;SDS011;65758;45.458;11.062;2023-06-14T00:43:14;4.50;;;3.70;;
76807;SDS011;65758;45.458;11.062;2023-06-14T00:45:42;4.60;;;4.20;;
76807;SDS011;65758;45.458;11.062;2023-06-14T00:48:09;5.10;;;4.00;;
76807;SDS011;65758;45.458;11.062;2023-06-14T00:50:37;4.10;;;3.70;;
76807;SDS011;65758;45.458;11.062;2023-06-14T00:53:04;4.90;;;4.30;;
76807;SDS011;65758;45.458;11.062;2023-06-14T00:55:31;7.20;;;4.20;;
76807;SDS011;65758;45.458;11.062;2023-06-14T00:57:59;4.30;;;3.90;;
76807;SDS011;65758;45.458;11.062;2023-06-14T01:00:26;8.60;;;4.90;;
76807;SDS011;65758;45.458;11.062;2023-06-14T01:07:33;7.30;;;3.90;;
76807;SDS011;65758;45.458;11.062;2023-06-14T01:13:14;4.30;;;3.90;;
76807;SDS011;65758;45.458;11.062;2023-06-14T01:15:47;5.00;;;4.00;;
76807;SDS011;65758;45.458;11.062;2023-06-14T01:18:17;4.00;;;3.60;;
76807;SDS011;65758;45.458;11.062;2023-06-14T01:20:45;3.90;;;3.60;;
76807;SDS011;65758;45.458;11.062;2023-06-14T01:23:16;4.60;;;3.70;;
76807;SDS011;65758;45.458;11.062;2023-06-14T01:25:44;6.30;;;4.00;;
76807;SDS011;65758;45.458;11.062;2023-06-14T01:28:14;4.00;;;3.50;;
76807;SDS011;65758;45.458;11.062;2023-06-14T01:30:44;5.00;;;4.50;;
76807;SDS011;65758;45.458;11.062;2023-06-14T01:33:24;5.80;;;4.20;;
76807;SDS011;65758;45.458;11.062;2023-06-14T01:35:57;5.00;;;4.50;;
76807;SDS011;65758;45.458;11.062;2023-06-14T01:38:25;4.60;;;4.20;;
76807;SDS011;65758;45.458;11.062;2023-06-14T01:40:54;4.80;;;3.80;;
76807;SDS011;65758;45.458;11.062;2023-06-14T01:43:24;4.50;;;4.10;;
76807;SDS011;65758;45.458;11.062;2023-06-14T01:45:53;4.20;;;3.90;;
76807;SDS011;65758;45.458;11.062;2023-06-14T01:48:22;4.30;;;3.80;;
76807;SDS011;65758;45.458;11.062;2023-06-14T01:50:49;6.20;;;3.60;;
76807;SDS011;65758;45.458;11.062;2023-06-14T01:53:16;5.40;;;4.00;;
76807;SDS011;65758;45.458;11.062;2023-06-14T01:55:43;4.30;;;3.70;;
76807;SDS011;65758;45.458;11.062;2023-06-14T01:58:10;4.70;;;4.30;;
76807;SDS011;65758;45.458;11.062;2023-06-14T02:00:37;5.20;;;4.00;;
76807;SDS011;65758;45.458;11.062;2023-06-14T02:03:04;5.90;;;4.00;;
76807;SDS011;65758;45.458;11.062;2023-06-14T02:05:31;7.30;;;4.10;;
76807;SDS011;65758;45.458;11.062;2023-06-14T02:07:58;6.00;;;4.00;;
76807;SDS011;65758;45.458;11.062;2023-06-14T02:10:25;5.80;;;3.90;;
76807;SDS011;65758;45.458;11.062;2023-06-14T02:12:54;5.20;;;3.80;;
76807;SDS011;65758;45.458;11.062;2023-06-14T02:15:20;4.50;;;4.10;;
76807;SDS011;65758;45.458;11.062;2023-06-14T02:17:48;5.10;;;4.10;;
76807;SDS011;65758;45.458;11.062;2023-06-14T02:20:17;4.40;;;4.00;;
76807;SDS011;65758;45.458;11.062;2023-06-14T02:22:44;5.10;;;3.90;;
76807;SDS011;65758;45.458;11.062;2023-06-14T02:25:12;4.00;;;3.70;;
76807;SDS011;65758;45.458;11.062;2023-06-14T02:27:40;4.40;;;4.00;;
76807;SDS011;65758;45.458;11.062;2023-06-14T02:30:07;4.10;;;3.80;;
76807;SDS011;65758;45.458;11.062;2023-06-14T02:32:34;5.30;;;3.90;;
76807;SDS011;65758;45.458;11.062;2023-06-14T02:35:04;4.70;;;4.20;;
76807;SDS011;65758;45.458;11.062;2023-06-14T02:37:34;4.40;;;4.00;;
76807;SDS011;65758;45.458;11.062;2023-06-14T02:40:01;5.20;;;4.10;;
76807;SDS011;65758;45.458;11.062;2023-06-14T02:42:30;7.00;;;4.50;;
76807;SDS011;65758;45.458;11.062;2023-06-14T02:44:57;4.30;;;3.80;;
76807;SDS011;65758;45.458;11.062;2023-06-14T02:47:24;5.00;;;4.00;;
76807;SDS011;65758;45.458;11.062;2023-06-14T02:49:51;5.00;;;3.80;;
76807;SDS011;65758;45.458;11.062;2023-06-14T02:52:18;5.30;;;3.60;;
76807;SDS011;65758;45.458;11.062;2023-06-14T02:54:45;4.80;;;3.90;;
76807;SDS011;65758;45.458;11.062;2023-06-14T02:57:14;8.80;;;4.40;;
76807;SDS011;65758;45.458;11.062;2023-06-14T02:59:42;5.00;;;4.50;;
76807;SDS011;65758;45.458;11.062;2023-06-14T03:02:09;5.30;;;4.60;;
76807;SDS011;65758;45.458;11.062;2023-06-14T03:04:40;6.10;;;4.10;;
76807;SDS011;65758;45.458;11.062;2023-06-14T03:07:09;5.20;;;4.70;;
76807;SDS011;65758;45.458;11.062;2023-06-14T03:09:39;4.90;;;4.20;;
76807;SDS011;65758;45.458;11.062;2023-06-14T03:12:08;5.00;;;4.10;;
76807;SDS011;65758;45.458;11.062;2023-06-14T03:14:36;4.80;;;4.10;;
76807;SDS011;65758;45.458;11.062;2023-06-14T03:17:03;4.60;;;4.10;;
76807;SDS011;65758;45.458;11.062;2023-06-14T03:19:32;5.10;;;4.10;;
76807;SDS011;65758;45.458;11.062;2023-06-14T03:21:59;4.30;;;3.90;;
76807;SDS011;65758;45.458;11.062;2023-06-14T03:24:27;4.90;;;4.10;;
76807;SDS011;65758;45.458;11.062;2023-06-14T03:26:56;4.40;;;4.00;;
76807;SDS011;65758;45.458;11.062;2023-06-14T03:29:23;4.30;;;3.50;;
76807;SDS011;65758;45.458;11.062;2023-06-14T03:32:00;4.60;;;3.70;;
76807;SDS011;65758;45.458;11.062;2023-06-14T03:34:37;5.90;;;3.60;;
76807;SDS011;65758;45.458;11.062;2023-06-14T03:37:12;5.50;;;4.30;;
76807;SDS011;65758;45.458;11.062;2023-06-14T03:39:40;4.20;;;3.80;;
76807;SDS011;65758;45.458;11.062;2023-06-14T03:42:17;4.60;;;3.70;;
76807;SDS011;65758;45.458;11.062;2023-06-14T03:44:44;4.10;;;3.80;;
76807;SDS011;65758;45.458;11.062;2023-06-14T03:47:11;4.20;;;3.80;;
76807;SDS011;65758;45.458;11.062;2023-06-14T03:49:38;4.10;;;3.70;;
76807;SDS011;65758;45.458;11.062;2023-06-14T03:52:05;4.40;;;3.50;;
76807;SDS011;65758;45.458;11.062;2023-06-14T03:54:34;4.90;;;4.30;;
76807;SDS011;65758;45.458;11.062;2023-06-14T03:57:04;5.50;;;4.30;;
76807;SDS011;65758;45.458;11.062;2023-06-14T03:59:31;4.60;;;4.20;;
76807;SDS011;65758;45.458;11.062;2023-06-14T04:01:58;4.60;;;4.20;;
76807;SDS011;65758;45.458;11.062;2023-06-14T04:04:25;6.60;;;3.90;;
76807;SDS011;65758;45.458;11.062;2023-06-14T04:06:56;5.10;;;4.10;;
76807;SDS011;65758;45.458;11.062;2023-06-14T04:09:26;5.30;;;4.30;;
76807;SDS011;65758;45.458;11.062;2023-06-14T04:11:53;4.20;;;3.80;;
76807;SDS011;65758;45.458;11.062;2023-06-14T04:14:20;6.60;;;4.60;;
76807;SDS011;65758;45.458;11.062;2023-06-14T04:16:47;8.60;;;4.60;;
76807;SDS011;65758;45.458;11.062;2023-06-14T04:19:17;6.20;;;4.70;;
76807;SDS011;65758;45.458;11.062;2023-06-14T04:21:44;8.50;;;5.00;;
76807;SDS011;65758;45.458;11.062;2023-06-14T04:24:13;10.90;;;4.40;;
76807;SDS011;65758;45.458;11.062;2023-06-14T04:26:45;6.20;;;4.40;;
76807;SDS011;65758;45.458;11.062;2023-06-14T04:29:16;14.80;;;5.00;;
76807;SDS011;65758;45.458;11.062;2023-06-14T04:31:48;5.00;;;4.30;;
76807;SDS011;65758;45.458;11.062;2023-06-14T04:38:44;5.40;;;4.40;;
76807;SDS011;65758;45.458;11.062;2023-06-14T04:41:13;7.10;;;4.90;;
76807;SDS011;65758;45.458;11.062;2023-06-14T04:43:41;6.00;;;4.50;;
76807;SDS011;65758;45.458;11.062;2023-06-14T04:46:09;6.40;;;4.70;;
76807;SDS011;65758;45.458;11.062;2023-06-14T04:48:38;4.60;;;4.10;;
76807;SDS011;65758;45.458;11.062;2023-06-14T04:51:09;5.30;;;4.40;;
76807;SDS011;65758;45.458;11.062;2023-06-14T04:53:36;5.10;;;3.80;;
76807;SDS011;65758;45.458;11.062;2023-06-14T04:56:04;6.40;;;4.80;;
76807;SDS011;65758;45.458;11.062;2023-06-14T04:58:32;7.50;;;5.40;;
76807;SDS011;65758;45.458;11.062;2023-06-14T05:00:59;6.00;;;4.80;;
76807;SDS011;65758;45.458;11.062;2023-06-14T05:03:27;7.90;;;4.60;;
76807;SDS011;65758;45.458;11.062;2023-06-14T05:10:11;7.30;;;4.70;;
76807;SDS011;65758;45.458;11.062;2023-06-14T05:12:38;6.90;;;5.80;;
76807;SDS011;65758;45.458;11.062;2023-06-14T05:15:07;11.50;;;5.70;;
76807;SDS011;65758;45.458;11.062;2023-06-14T05:17:35;9.20;;;5.40;;
76807;SDS011;65758;45.458;11.062;2023-06-14T05:20:03;7.60;;;5.80;;
76807;SDS011;65758;45.458;11.062;2023-06-14T05:22:31;9.10;;;5.60;;
76807;SDS011;65758;45.458;11.062;2023-06-14T05:24:58;6.90;;;5.20;;
76807;SDS011;65758;45.458;11.062;2023-06-14T05:27:25;8.30;;;4.60;;
76807;SDS011;65758;45.458;11.062;2023-06-14T05:29:52;6.50;;;5.00;;
76807;SDS011;65758;45.458;11.062;2023-06-14T05:32:22;6.90;;;5.00;;
76807;SDS011;65758;45.458;11.062;2023-06-14T05:34:49;11.70;;;5.40;;
76807;SDS011;65758;45.458;11.062;2023-06-14T05:37:16;11.70;;;5.60;;
76807;SDS011;65758;45.458;11.062;2023-06-14T05:39:44;8.20;;;5.40;;
76807;SDS011;65758;45.458;11.062;2023-06-14T05:42:10;5.40;;;4.60;;
76807;SDS011;65758;45.458;11.062;2023-06-14T05:44:37;8.10;;;5.30;;
76807;SDS011;65758;45.458;11.062;2023-06-14T05:47:04;9.20;;;5.40;;
76807;SDS011;65758;45.458;11.062;2023-06-14T05:49:31;7.30;;;5.30;;
76807;SDS011;65758;45.458;11.062;2023-06-14T05:58:40;6.60;;;5.00;;
76807;SDS011;65758;45.458;11.062;2023-06-14T06:05:34;8.90;;;5.30;;
76807;SDS011;65758;45.458;11.062;2023-06-14T06:08:01;6.80;;;5.10;;
76807;SDS011;65758;45.458;11.062;2023-06-14T06:10:28;5.70;;;5.10;;
76807;SDS011;65758;45.458;11.062;2023-06-14T06:12:55;6.20;;;5.30;;
76807;SDS011;65758;45.458;11.062;2023-06-14T06:15:21;7.00;;;5.30;;
76807;SDS011;65758;45.458;11.062;2023-06-14T06:17:49;7.30;;;5.60;;
76807;SDS011;65758;45.458;11.062;2023-06-14T06:20:22;8.30;;;5.90;;
76807;SDS011;65758;45.458;11.062;2023-06-14T06:22:56;7.70;;;6.00;;
76807;SDS011;65758;45.458;11.062;2023-06-14T06:25:27;8.00;;;6.60;;
76807;SDS011;65758;45.458;11.062;2023-06-14T06:27:54;6.80;;;6.00;;
76807;SDS011;65758;45.458;11.062;2023-06-14T06:30:24;9.20;;;6.30;;
76807;SDS011;65758;45.458;11.062;2023-06-14T06:32:52;7.90;;;6.10;;
76807;SDS011;65758;45.458;11.062;2023-06-14T06:35:20;8.10;;;6.10;;
76807;SDS011;65758;45.458;11.062;2023-06-14T06:37:46;9.20;;;6.60;;
76807;SDS011;65758;45.458;11.062;2023-06-14T06:40:13;9.80;;;6.40;;
76807;SDS011;65758;45.458;11.062;2023-06-14T06:42:41;9.10;;;6.70;;
76807;SDS011;65758;45.458;11.062;2023-06-14T06:45:10;8.90;;;6.10;;
76807;SDS011;65758;45.458;11.062;2023-06-14T06:47:37;8.60;;;6.40;;
76807;SDS011;65758;45.458;11.062;2023-06-14T06:50:05;8.60;;;6.00;;
76807;SDS011;65758;45.458;11.062;2023-06-14T06:52:34;8.50;;;5.70;;
76807;SDS011;65758;45.458;11.062;2023-06-14T06:55:01;6.90;;;5.90;;
76807;SDS011;65758;45.458;11.062;2023-06-14T07:01:49;10.40;;;7.30;;
76807;SDS011;65758;45.458;11.062;2023-06-14T07:04:20;8.90;;;7.00;;
76807;SDS011;65758;45.458;11.062;2023-06-14T07:06:47;9.80;;;6.80;;
76807;SDS011;65758;45.458;11.062;2023-06-14T07:09:14;8.60;;;6.50;;
76807;SDS011;65758;45.458;11.062;2023-06-14T07:11:43;9.50;;;6.70;;
76807;SDS011;65758;45.458;11.062;2023-06-14T07:14:10;9.10;;;7.10;;
76807;SDS011;65758;45.458;11.062;2023-06-14T07:16:38;7.40;;;6.30;;
76807;SDS011;65758;45.458;11.062;2023-06-14T07:19:05;7.30;;;6.30;;
76807;SDS011;65758;45.458;11.062;2023-06-14T07:21:32;10.90;;;7.10;;
76807;SDS011;65758;45.458;11.062;2023-06-14T07:23:59;8.40;;;6.50;;
76807;SDS011;65758;45.458;11.062;2023-06-14T07:26:26;9.30;;;5.90;;
76807;SDS011;65758;45.458;11.062;2023-06-14T07:28:54;8.60;;;6.30;;
76807;SDS011;65758;45.458;11.062;2023-06-14T07:35:46;8.60;;;6.30;;
76807;SDS011;65758;45.458;11.062;2023-06-14T07:38:14;8.10;;;6.20;;
76807;SDS011;65758;45.458;11.062;2023-06-14T07:45:03;9.30;;;5.90;;
76807;SDS011;65758;45.458;11.062;2023-06-14T07:47:31;7.20;;;5.90;;
76807;SDS011;65758;45.458;11.062;2023-06-14T07:54:19;10.80;;;5.90;;
76807;SDS011;65758;45.458;11.062;2023-06-14T07:56:51;9.80;;;6.00;;
76807;SDS011;65758;45.458;11.062;2023-06-14T07:59:18;8.30;;;5.80;;
76807;SDS011;65758;45.458;11.062;2023-06-14T08:01:45;11.40;;;6.60;;
76807;SDS011;65758;45.458;11.062;2023-06-14T08:04:15;9.50;;;6.20;;
76807;SDS011;65758;45.458;11.062;2023-06-14T08:06:42;7.60;;;5.70;;
76807;SDS011;65758;45.458;11.062;2023-06-14T08:13:32;7.30;;;5.50;;
76807;SDS011;65758;45.458;11.062;2023-06-14T08:20:27;11.00;;;5.50;;
76807;SDS011;65758;45.458;11.062;2023-06-14T08:22:56;4.60;;;4.10;;
76807;SDS011;65758;45.458;11.062;2023-06-14T08:25:24;4.70;;;4.10;;
76807;SDS011;65758;45.458;11.062;2023-06-14T08:27:52;5.70;;;4.10;;
76807;SDS011;65758;45.458;11.062;2023-06-14T08:30:19;4.90;;;4.00;;
76807;SDS011;65758;45.458;11.062;2023-06-14T08:32:46;3.60;;;3.30;;
76807;SDS011;65758;45.458;11.062;2023-06-14T08:35:22;4.10;;;3.40;;
76807;SDS011;65758;45.458;11.062;2023-06-14T08:37:50;4.10;;;3.60;;
76807;SDS011;65758;45.458;11.062;2023-06-14T08:42:43;4.30;;;3.40;;
76807;SDS011;65758;45.458;11.062;2023-06-14T08:45:12;7.70;;;3.60;;
76807;SDS011;65758;45.458;11.062;2023-06-14T08:47:40;5.20;;;3.70;;
76807;SDS011;65758;45.458;11.062;2023-06-14T08:50:08;5.80;;;3.70;;
76807;SDS011;65758;45.458;11.062;2023-06-14T08:52:54;4.80;;;3.90;;
76807;SDS011;65758;45.458;11.062;2023-06-14T08:55:24;3.80;;;3.40;;
76807;SDS011;65758;45.458;11.062;2023-06-14T08:57:54;3.90;;;3.40;;
76807;SDS011;65758;45.458;11.062;2023-06-14T09:00:30;4.10;;;3.50;;
76807;SDS011;65758;45.458;11.062;2023-06-14T09:07:08;3.30;;;3.00;;
76807;SDS011;65758;45.458;11.062;2023-06-14T09:09:42;4.70;;;3.60;;
76807;SDS011;65758;45.458;11.062;2023-06-14T09:12:30;4.30;;;3.40;;
76807;SDS011;65758;45.458;11.062;2023-06-14T09:14:57;4.40;;;4.00;;
76807;SDS011;65758;45.458;11.062;2023-06-14T09:21:50;5.30;;;3.70;;
76807;SDS011;65758;45.458;11.062;2023-06-14T09:24:19;4.10;;;3.80;;
76807;SDS011;65758;45.458;11.062;2023-06-14T09:26:47;4.80;;;3.80;;
76807;SDS011;65758;45.458;11.062;2023-06-14T09:29:15;5.20;;;4.10;;
76807;SDS011;65758;45.458;11.062;2023-06-14T09:31:45;6.30;;;3.90;;
76807;SDS011;65758;45.458;11.062;2023-06-14T09:34:13;7.10;;;4.30;;
76807;SDS011;65758;45.458;11.062;2023-06-14T09:36:40;4.30;;;3.90;;
76807;SDS011;65758;45.458;11.062;2023-06-14T09:43:15;4.60;;;3.90;;
76807;SDS011;65758;45.458;11.062;2023-06-14T09:45:44;4.10;;;3.70;;
76807;SDS011;65758;45.458;11.062;2023-06-14T09:52:43;4.20;;;3.70;;
76807;SDS011;65758;45.458;11.062;2023-06-14T09:55:13;5.20;;;3.60;;
76807;SDS011;65758;45.458;11.062;2023-06-14T10:01:56;3.70;;;3.40;;
76807;SDS011;65758;45.458;11.062;2023-06-14T10:04:27;7.30;;;3.40;;
76807;SDS011;65758;45.458;11.062;2023-06-14T10:06:58;5.90;;;3.70;;
76807;SDS011;65758;45.458;11.062;2023-06-14T10:18:11;4.70;;;3.40;;
76807;SDS011;65758;45.458;11.062;2023-06-14T10:20:51;3.80;;;3.40;;
76807;SDS011;65758;45.458;11.062;2023-06-14T10:23:20;3.60;;;3.20;;
76807;SDS011;65758;45.458;11.062;2023-06-14T10:30:03;3.70;;;3.40;;
76807;SDS011;65758;45.458;11.062;2023-06-14T10:32:32;3.90;;;3.10;;
76807;SDS011;65758;45.458;11.062;2023-06-14T10:35:06;3.80;;;3.50;;
76807;SDS011;65758;45.458;11.062;2023-06-14T10:37:37;3.80;;;3.50;;
76807;SDS011;65758;45.458;11.062;2023-06-14T10:46:48;3.20;;;2.90;;
76807;SDS011;65758;45.458;11.062;2023-06-14T10:49:16;3.70;;;3.40;;
76807;SDS011;65758;45.458;11.062;2023-06-14T10:51:49;3.90;;;3.30;;
76807;SDS011;65758;45.458;11.062;2023-06-14T10:58:29;4.10;;;3.10;;
76807;SDS011;65758;45.458;11.062;2023-06-14T11:05:15;5.40;;;3.30;;
76807;SDS011;65758;45.458;11.062;2023-06-14T11:10:39;4.10;;;3.10;;
76807;SDS011;65758;45.458;11.062;2023-06-14T11:13:07;4.40;;;3.30;;
76807;SDS011;65758;45.458;11.062;2023-06-14T11:15:35;4.10;;;3.10;;
76807;SDS011;65758;45.458;11.062;2023-06-14T11:20:36;3.80;;;3.10;;
76807;SDS011;65758;45.458;11.062;2023-06-14T11:23:03;3.80;;;3.30;;
76807;SDS011;65758;45.458;11.062;2023-06-14T11:25:31;3.70;;;2.90;;
76807;SDS011;65758;45.458;11.062;2023-06-14T11:27:58;5.00;;;3.10;;
76807;SDS011;65758;45.458;11.062;2023-06-14T11:30:26;7.10;;;3.50;;
76807;SDS011;65758;45.458;11.062;2023-06-14T11:32:53;7.20;;;3.40;;
76807;SDS011;65758;45.458;11.062;2023-06-14T11:35:24;3.70;;;3.40;;
76807;SDS011;65758;45.458;11.062;2023-06-14T11:37:53;4.70;;;3.00;;
76807;SDS011;65758;45.458;11.062;2023-06-14T11:40:25;4.60;;;3.10;;
76807;SDS011;65758;45.458;11.062;2023-06-14T11:43:00;4.50;;;3.20;;
76807;SDS011;65758;45.458;11.062;2023-06-14T11:45:28;3.30;;;3.00;;
76807;SDS011;65758;45.458;11.062;2023-06-14T11:47:57;4.50;;;3.50;;
76807;SDS011;65758;45.458;11.062;2023-06-14T11:50:25;3.40;;;3.00;;
76807;SDS011;65758;45.458;11.062;2023-06-14T11:57:13;5.40;;;3.60;;
76807;SDS011;65758;45.458;11.062;2023-06-14T11:59:40;3.90;;;3.30;;
76807;SDS011;65758;45.458;11.062;2023-06-14T12:02:07;4.20;;;3.30;;
76807;SDS011;65758;45.458;11.062;2023-06-14T12:04:34;3.50;;;3.20;;
76807;SDS011;65758;45.458;11.062;2023-06-14T12:11:22;5.20;;;3.50;;
76807;SDS011;65758;45.458;11.062;2023-06-14T12:13:49;4.30;;;3.10;;
76807;SDS011;65758;45.458;11.062;2023-06-14T12:20:43;4.30;;;3.40;;
76807;SDS011;65758;45.458;11.062;2023-06-14T12:23:16;4.80;;;4.00;;
76807;SDS011;65758;45.458;11.062;2023-06-14T12:25:43;4.80;;;3.50;;
76807;SDS011;65758;45.458;11.062;2023-06-14T12:28:11;4.10;;;3.60;;
76807;SDS011;65758;45.458;11.062;2023-06-14T12:30:38;4.00;;;3.60;;
76807;SDS011;65758;45.458;11.062;2023-06-14T12:33:05;4.30;;;3.20;;
76807;SDS011;65758;45.458;11.062;2023-06-14T12:35:34;4.20;;;3.80;;
76807;SDS011;65758;45.458;11.062;2023-06-14T12:38:01;3.50;;;3.20;;
76807;SDS011;65758;45.458;11.062;2023-06-14T12:40:28;5.10;;;3.20;;
76807;SDS011;65758;45.458;11.062;2023-06-14T12:42:55;5.30;;;4.00;;
76807;SDS011;65758;45.458;11.062;2023-06-14T12:45:21;5.20;;;3.80;;
76807;SDS011;65758;45.458;11.062;2023-06-14T12:47:50;5.10;;;3.50;;
76807;SDS011;65758;45.458;11.062;2023-06-14T12:50:17;5.30;;;3.40;;
76807;SDS011;65758;45.458;11.062;2023-06-14T12:52:44;4.00;;;3.60;;
76807;SDS011;65758;45.458;11.062;2023-06-14T12:55:11;5.00;;;3.90;;
76807;SDS011;65758;45.458;11.062;2023-06-14T12:57:38;4.40;;;3.50;;
76807;SDS011;65758;45.458;11.062;2023-06-14T13:00:05;5.50;;;3.10;;
76807;SDS011;65758;45.458;11.062;2023-06-14T13:02:34;4.00;;;3.70;;
76807;SDS011;65758;45.458;11.062;2023-06-14T13:05:02;4.00;;;3.60;;
76807;SDS011;65758;45.458;11.062;2023-06-14T13:07:30;3.40;;;3.10;;
76807;SDS011;65758;45.458;11.062;2023-06-14T13:09:57;4.30;;;3.30;;
76807;SDS011;65758;45.458;11.062;2023-06-14T13:12:24;5.30;;;3.30;;
76807;SDS011;65758;45.458;11.062;2023-06-14T13:14:51;3.20;;;2.90;;
76807;SDS011;65758;45.458;11.062;2023-06-14T13:17:18;3.60;;;3.10;;
76807;SDS011;65758;45.458;11.062;2023-06-14T13:19:45;5.20;;;3.60;;
76807;SDS011;65758;45.458;11.062;2023-06-14T13:22:12;4.20;;;3.80;;
76807;SDS011;65758;45.458;11.062;2023-06-14T13:24:39;4.20;;;3.60;;
76807;SDS011;65758;45.458;11.062;2023-06-14T13:31:28;4.20;;;2.80;;
76807;SDS011;65758;45.458;11.062;2023-06-14T13:33:55;3.90;;;3.60;;
76807;SDS011;65758;45.458;11.062;2023-06-14T13:40:42;4.30;;;3.40;;
76807;SDS011;65758;45.458;11.062;2023-06-14T13:43:09;3.90;;;3.50;;
76807;SDS011;65758;45.458;11.062;2023-06-14T13:45:36;4.50;;;3.30;;
76807;SDS011;65758;45.458;11.062;2023-06-14T13:52:24;3.80;;;3.00;;
76807;SDS011;65758;45.458;11.062;2023-06-14T13:59:11;3.80;;;3.40;;
76807;SDS011;65758;45.458;11.062;2023-06-14T14:01:39;3.30;;;2.90;;
76807;SDS011;65758;45.458;11.062;2023-06-14T14:04:06;4.10;;;3.40;;
76807;SDS011;65758;45.458;11.062;2023-06-14T14:06:33;3.80;;;3.20;;
76807;SDS011;65758;45.458;11.062;2023-06-14T14:09:00;4.90;;;3.00;;
76807;SDS011;65758;45.458;11.062;2023-06-14T14:11:27;3.00;;;2.70;;
76807;SDS011;65758;45.458;11.062;2023-06-14T14:13:54;3.50;;;3.20;;
76807;SDS011;65758;45.458;11.062;2023-06-14T14:16:21;3.20;;;3.00;;
76807;SDS011;65758;45.458;11.062;2023-06-14T14:18:48;5.60;;;3.80;;
76807;SDS011;65758;45.458;11.062;2023-06-14T14:21:15;5.30;;;2.90;;
76807;SDS011;65758;45.458;11.062;2023-06-14T14:23:42;3.90;;;3.00;;
76807;SDS011;65758;45.458;11.062;2023-06-14T14:26:09;4.30;;;3.40;;
76807;SDS011;65758;45.458;11.062;2023-06-14T14:28:36;4.80;;;3.70;;
76807;SDS011;65758;45.458;11.062;2023-06-14T14:31:02;4.90;;;3.30;;
76807;SDS011;65758;45.458;11.062;2023-06-14T14:33:29;4.80;;;3.70;;
76807;SDS011;65758;45.458;11.062;2023-06-14T14:35:56;4.30;;;3.70;;
76807;SDS011;65758;45.458;11.062;2023-06-14T14:38:23;4.30;;;3.10;;
76807;SDS011;65758;45.458;11.062;2023-06-14T14:40:50;5.00;;;3.30;;
76807;SDS011;65758;45.458;11.062;2023-06-14T14:47:38;6.70;;;3.80;;
76807;SDS011;65758;45.458;11.062;2023-06-14T14:50:05;5.00;;;3.60;;
76807;SDS011;65758;45.458;11.062;2023-06-14T14:52:35;3.80;;;3.40;;
76807;SDS011;65758;45.458;11.062;2023-06-14T14:55:02;4.10;;;3.20;;
76807;SDS011;65758;45.458;11.062;2023-06-14T14:57:29;3.80;;;3.30;;
76807;SDS011;65758;45.458;11.062;2023-06-14T14:59:57;4.40;;;2.70;;
76807;SDS011;65758;45.458;11.062;2023-06-14T15:02:24;4.20;;;3.30;;
76807;SDS011;65758;45.458;11.062;2023-06-14T15:04:51;4.00;;;2.80;;
76807;SDS011;65758;45.458;11.062;2023-06-14T15:25:42;5.70;;;3.70;;
76807;SDS011;65758;45.458;11.062;2023-06-14T15:28:09;4.20;;;3.30;;
76807;SDS011;65758;45.458;11.062;2023-06-14T15:30:36;7.10;;;3.40;;
76807;SDS011;65758;45.458;11.062;2023-06-14T15:33:03;5.20;;;3.70;;
76807;SDS011;65758;45.458;11.062;2023-06-14T15:35:30;6.20;;;3.80;;
76807;SDS011;65758;45.458;11.062;2023-06-14T15:37:57;4.60;;;4.20;;
76807;SDS011;65758;45.458;11.062;2023-06-14T15:40:24;4.60;;;3.70;;
76807;SDS011;65758;45.458;11.062;2023-06-14T15:42:52;4.00;;;3.60;;
76807;SDS011;65758;45.458;11.062;2023-06-14T15:45:19;6.40;;;4.10;;
76807;SDS011;65758;45.458;11.062;2023-06-14T15:47:46;4.80;;;3.90;;
76807;SDS011;65758;45.458;11.062;2023-06-14T15:50:13;5.60;;;4.10;;
76807;SDS011;65758;45.458;11.062;2023-06-14T15:52:40;5.00;;;3.60;;
76807;SDS011;65758;45.458;11.062;2023-06-14T15:55:07;6.30;;;3.80;;
76807;SDS011;65758;45.458;11.062;2023-06-14T15:57:34;5.50;;;3.50;;
76807;SDS011;65758;45.458;11.062;2023-06-14T16:00:01;4.00;;;3.60;;
76807;SDS011;65758;45.458;11.062;2023-06-14T16:02:30;4.80;;;3.80;;
76807;SDS011;65758;45.458;11.062;2023-06-14T16:04:57;5.20;;;3.90;;
76807;SDS011;65758;45.458;11.062;2023-06-14T16:07:24;4.90;;;4.20;;
76807;SDS011;65758;45.458;11.062;2023-06-14T16:09:50;4.70;;;3.70;;
76807;SDS011;65758;45.458;11.062;2023-06-14T16:12:17;4.80;;;3.90;;
76807;SDS011;65758;45.458;11.062;2023-06-14T16:14:47;4.90;;;4.00;;
76807;SDS011;65758;45.458;11.062;2023-06-14T16:17:14;5.40;;;3.90;;
76807;SDS011;65758;45.458;11.062;2023-06-14T16:19:41;5.80;;;3.90;;
76807;SDS011;65758;45.458;11.062;2023-06-14T16:22:09;5.60;;;4.00;;
76807;SDS011;65758;45.458;11.062;2023-06-14T16:24:35;6.90;;;4.00;;
76807;SDS011;65758;45.458;11.062;2023-06-14T16:27:02;4.20;;;3.60;;
76807;SDS011;65758;45.458;11.062;2023-06-14T16:29:32;6.20;;;4.00;;
76807;SDS011;65758;45.458;11.062;2023-06-14T16:31:59;6.70;;;4.00;;
76807;SDS011;65758;45.458;11.062;2023-06-14T16:34:26;4.20;;;3.80;;
76807;SDS011;65758;45.458;11.062;2023-06-14T16:36:53;4.00;;;3.70;;
76807;SDS011;65758;45.458;11.062;2023-06-14T16:39:20;4.20;;;3.80;;
76807;SDS011;65758;45.458;11.062;2023-06-14T16:41:47;4.90;;;3.60;;
76807;SDS011;65758;45.458;11.062;2023-06-14T16:44:14;4.80;;;3.70;;
76807;SDS011;65758;45.458;11.062;2023-06-14T16:46:41;4.10;;;3.70;;
76807;SDS011;65758;45.458;11.062;2023-06-14T16:49:08;6.00;;;4.00;;
76807;SDS011;65758;45.458;11.062;2023-06-14T16:51:35;5.00;;;3.90;;
76807;SDS011;65758;45.458;11.062;2023-06-14T16:54:02;5.90;;;4.40;;
76807;SDS011;65758;45.458;11.062;2023-06-14T16:56:28;8.00;;;4.60;;
76807;SDS011;65758;45.458;11.062;2023-06-14T16:58:58;4.20;;;3.80;;
76807;SDS011;65758;45.458;11.062;2023-06-14T17:01:25;4.30;;;3.90;;
76807;SDS011;65758;45.458;11.062;2023-06-14T17:03:54;4.60;;;3.90;;
76807;SDS011;65758;45.458;11.062;2023-06-14T17:06:22;6.20;;;4.40;;
76807;SDS011;65758;45.458;11.062;2023-06-14T17:08:50;6.10;;;4.30;;
76807;SDS011;65758;45.458;11.062;2023-06-14T17:11:20;6.20;;;4.20;;
76807;SDS011;65758;45.458;11.062;2023-06-14T17:13:49;5.30;;;4.30;;
76807;SDS011;65758;45.458;11.062;2023-06-14T17:16:17;5.40;;;3.60;;
76807;SDS011;65758;45.458;11.062;2023-06-14T17:18:45;5.00;;;3.30;;
76807;SDS011;65758;45.458;11.062;2023-06-14T17:21:15;4.80;;;3.80;;
76807;SDS011;65758;45.458;11.062;2023-06-14T17:23:42;5.20;;;3.90;;